sensor_id;sensor_type;location;lat;lon;timestamp;temperature;humidity
8459;DHT22;4266;48.816;9.154;2022-07-29T00:01:30;19.60;99.90
8459;DHT22;4266;48.816;9.154;2022-07-29T00:03:55;19.60;99.90
8459;DHT22;4266;48.816;9.154;2022-07-29T00:06:21;19.60;99.90
8459;DHT22;4266;48.816;9.154;2022-07-29T00:08:47;19.60;99.90
8459;DHT22;4266;48.816;9.154;2022-07-29T00:11:12;19.60;99.90
8459;DHT22;4266;48.816;9.154;2022-07-29T00:13:38;19.60;99.90
8459;DHT22;4266;48.816;9.154;2022-07-29T00:16:04;19.50;99.90
8459;DHT22;4266;48.816;9.154;2022-07-29T00:18:29;19.60;99.90
8459;DHT22;4266;48.816;9.154;2022-07-29T00:20:55;19.60;99.90
8459;DHT22;4266;48.816;9.154;2022-07-29T00:23:21;19.50;99.90
8459;DHT22;4266;48.816;9.154;2022-07-29T00:25:47;19.50;99.90
8459;DHT22;4266;48.816;9.154;2022-07-29T00:28:12;19.40;99.90
8459;DHT22;4266;48.816;9.154;2022-07-29T00:30:38;19.50;99.90
8459;DHT22;4266;48.816;9.154;2022-07-29T00:33:04;19.50;99.90
8459;DHT22;4266;48.816;9.154;2022-07-29T00:35:29;19.40;99.90
8459;DHT22;4266;48.816;9.154;2022-07-29T00:38:01;19.40;99.90
8459;DHT22;4266;48.816;9.154;2022-07-29T00:40:27;19.30;99.90
8459;DHT22;4266;48.816;9.154;2022-07-29T00:42:52;19.30;99.90
8459;DHT22;4266;48.816;9.154;2022-07-29T00:45:18;19.30;99.90
8459;DHT22;4266;48.816;9.154;2022-07-29T00:47:44;19.30;99.90
8459;DHT22;4266;48.816;9.154;2022-07-29T00:50:09;19.30;99.90
8459;DHT22;4266;48.816;9.154;2022-07-29T00:52:35;19.30;99.90
8459;DHT22;4266;48.816;9.154;2022-07-29T00:55:00;19.30;99.90
8459;DHT22;4266;48.816;9.154;2022-07-29T00:57:26;19.20;99.90
8459;DHT22;4266;48.816;9.154;2022-07-29T00:59:51;19.20;99.90
8459;DHT22;4266;48.816;9.154;2022-07-29T01:02:17;19.10;99.90
8459;DHT22;4266;48.816;9.154;2022-07-29T01:04:43;19.10;99.90
8459;DHT22;4266;48.816;9.154;2022-07-29T01:07:08;19.10;99.90
8459;DHT22;4266;48.816;9.154;2022-07-29T01:09:34;19.20;99.90
8459;DHT22;4266;48.816;9.154;2022-07-29T01:12:00;19.20;99.90
8459;DHT22;4266;48.816;9.154;2022-07-29T01:14:26;19.10;99.90
8459;DHT22;4266;48.816;9.154;2022-07-29T01:16:54;19.20;99.90
8459;DHT22;4266;48.816;9.154;2022-07-29T01:19:33;19.20;99.90
8459;DHT22;4266;48.816;9.154;2022-07-29T01:21:55;19.20;99.90
8459;DHT22;4266;48.816;9.154;2022-07-29T01:27:27;19.20;99.90
8459;DHT22;4266;48.816;9.154;2022-07-29T01:29:49;19.20;99.90
8459;DHT22;4266;48.816;9.154;2022-07-29T01:32:15;19.20;99.90
8459;DHT22;4266;48.816;9.154;2022-07-29T01:34:42;19.20;99.90
8459;DHT22;4266;48.816;9.154;2022-07-29T01:37:29;19.10;99.90
8459;DHT22;4266;48.816;9.154;2022-07-29T01:39:54;19.10;99.90
8459;DHT22;4266;48.816;9.154;2022-07-29T01:42:27;19.10;99.90
8459;DHT22;4266;48.816;9.154;2022-07-29T01:44:55;19.10;99.90
8459;DHT22;4266;48.816;9.154;2022-07-29T01:47:20;19.10;99.90
8459;DHT22;4266;48.816;9.154;2022-07-29T01:49:48;19.10;99.90
8459;DHT22;4266;48.816;9.154;2022-07-29T01:52:14;19.10;99.90
8459;DHT22;4266;48.816;9.154;2022-07-29T01:54:41;19.20;99.90
8459;DHT22;4266;48.816;9.154;2022-07-29T01:57:06;19.20;99.90
8459;DHT22;4266;48.816;9.154;2022-07-29T01:59:31;19.20;99.90
8459;DHT22;4266;48.816;9.154;2022-07-29T02:01:57;19.10;99.90
8459;DHT22;4266;48.816;9.154;2022-07-29T02:04:22;19.00;99.90
8459;DHT22;4266;48.816;9.154;2022-07-29T02:06:49;18.90;99.90
8459;DHT22;4266;48.816;9.154;2022-07-29T02:09:13;19.00;99.90
8459;DHT22;4266;48.816;9.154;2022-07-29T02:11:39;19.00;99.90
8459;DHT22;4266;48.816;9.154;2022-07-29T02:14:05;18.90;99.90
8459;DHT22;4266;48.816;9.154;2022-07-29T02:16:30;18.90;99.90
8459;DHT22;4266;48.816;9.154;2022-07-29T02:18:56;18.90;99.90
8459;DHT22;4266;48.816;9.154;2022-07-29T02:21:23;18.90;99.90
8459;DHT22;4266;48.816;9.154;2022-07-29T02:23:48;18.90;99.90
8459;DHT22;4266;48.816;9.154;2022-07-29T02:26:13;18.90;99.90
8459;DHT22;4266;48.816;9.154;2022-07-29T02:28:39;18.90;99.90
8459;DHT22;4266;48.816;9.154;2022-07-29T02:31:05;18.80;99.90
8459;DHT22;4266;48.816;9.154;2022-07-29T02:33:31;18.80;99.90
8459;DHT22;4266;48.816;9.154;2022-07-29T02:35:56;18.80;99.90
8459;DHT22;4266;48.816;9.154;2022-07-29T02:38:23;18.70;99.90
8459;DHT22;4266;48.816;9.154;2022-07-29T02:40:55;18.70;99.90
8459;DHT22;4266;48.816;9.154;2022-07-29T02:43:21;18.60;99.90
8459;DHT22;4266;48.816;9.154;2022-07-29T02:45:47;18.60;99.90
8459;DHT22;4266;48.816;9.154;2022-07-29T02:48:13;18.50;99.90
8459;DHT22;4266;48.816;9.154;2022-07-29T02:50:38;18.50;99.90
8459;DHT22;4266;48.816;9.154;2022-07-29T02:53:07;18.50;99.90
8459;DHT22;4266;48.816;9.154;2022-07-29T02:55:33;18.40;99.90
8459;DHT22;4266;48.816;9.154;2022-07-29T02:58:00;18.30;99.90
8459;DHT22;4266;48.816;9.154;2022-07-29T03:00:27;18.20;99.90
8459;DHT22;4266;48.816;9.154;2022-07-29T03:02:52;18.20;99.90
8459;DHT22;4266;48.816;9.154;2022-07-29T03:05:18;18.30;99.90
8459;DHT22;4266;48.816;9.154;2022-07-29T03:07:45;18.20;99.90
8459;DHT22;4266;48.816;9.154;2022-07-29T03:10:09;18.30;99.90
8459;DHT22;4266;48.816;9.154;2022-07-29T03:12:35;18.40;99.90
8459;DHT22;4266;48.816;9.154;2022-07-29T03:15:01;18.40;99.90
8459;DHT22;4266;48.816;9.154;2022-07-29T03:17:28;18.40;99.90
8459;DHT22;4266;48.816;9.154;2022-07-29T03:19:54;18.40;99.90
8459;DHT22;4266;48.816;9.154;2022-07-29T03:22:20;18.40;99.90
8459;DHT22;4266;48.816;9.154;2022-07-29T03:24:46;18.40;99.90
8459;DHT22;4266;48.816;9.154;2022-07-29T03:27:12;18.30;99.90
8459;DHT22;4266;48.816;9.154;2022-07-29T03:29:38;18.30;99.90
8459;DHT22;4266;48.816;9.154;2022-07-29T03:32:04;18.20;99.90
8459;DHT22;4266;48.816;9.154;2022-07-29T03:34:31;18.20;99.90
8459;DHT22;4266;48.816;9.154;2022-07-29T03:36:57;18.10;99.90
8459;DHT22;4266;48.816;9.154;2022-07-29T03:39:24;18.10;99.90
8459;DHT22;4266;48.816;9.154;2022-07-29T03:41:49;18.20;99.90
8459;DHT22;4266;48.816;9.154;2022-07-29T03:44:14;18.20;99.90
8459;DHT22;4266;48.816;9.154;2022-07-29T03:46:39;18.30;99.90
8459;DHT22;4266;48.816;9.154;2022-07-29T03:49:05;18.30;99.90
8459;DHT22;4266;48.816;9.154;2022-07-29T03:51:31;18.20;99.90
8459;DHT22;4266;48.816;9.154;2022-07-29T03:53:56;18.20;99.90
8459;DHT22;4266;48.816;9.154;2022-07-29T03:56:23;18.20;99.90
8459;DHT22;4266;48.816;9.154;2022-07-29T03:58:50;18.10;99.90
8459;DHT22;4266;48.816;9.154;2022-07-29T04:01:15;18.10;99.90
8459;DHT22;4266;48.816;9.154;2022-07-29T04:03:41;18.20;99.90
8459;DHT22;4266;48.816;9.154;2022-07-29T04:06:07;18.20;99.90
8459;DHT22;4266;48.816;9.154;2022-07-29T04:08:34;18.20;99.90
8459;DHT22;4266;48.816;9.154;2022-07-29T04:10:59;18.20;99.90
8459;DHT22;4266;48.816;9.154;2022-07-29T04:13:24;18.20;99.90
8459;DHT22;4266;48.816;9.154;2022-07-29T04:15:51;18.30;99.90
8459;DHT22;4266;48.816;9.154;2022-07-29T04:18:16;18.30;99.90
8459;DHT22;4266;48.816;9.154;2022-07-29T04:20:42;18.30;99.90
8459;DHT22;4266;48.816;9.154;2022-07-29T04:23:08;18.40;99.90
8459;DHT22;4266;48.816;9.154;2022-07-29T04:25:36;18.40;99.90
8459;DHT22;4266;48.816;9.154;2022-07-29T04:28:00;18.50;99.90
8459;DHT22;4266;48.816;9.154;2022-07-29T04:30:26;18.50;99.90
8459;DHT22;4266;48.816;9.154;2022-07-29T04:32:52;18.50;99.90
8459;DHT22;4266;48.816;9.154;2022-07-29T04:35:19;18.70;99.90
8459;DHT22;4266;48.816;9.154;2022-07-29T04:37:45;18.60;99.90
8459;DHT22;4266;48.816;9.154;2022-07-29T04:40:11;18.70;99.90
8459;DHT22;4266;48.816;9.154;2022-07-29T04:42:37;18.80;99.90
8459;DHT22;4266;48.816;9.154;2022-07-29T04:45:03;18.80;99.90
8459;DHT22;4266;48.816;9.154;2022-07-29T04:47:29;18.90;99.90
8459;DHT22;4266;48.816;9.154;2022-07-29T04:49:56;18.90;99.90
8459;DHT22;4266;48.816;9.154;2022-07-29T04:52:22;18.90;99.90
8459;DHT22;4266;48.816;9.154;2022-07-29T04:54:47;18.80;99.90
8459;DHT22;4266;48.816;9.154;2022-07-29T04:57:13;18.90;99.90
8459;DHT22;4266;48.816;9.154;2022-07-29T04:59:38;19.00;99.90
8459;DHT22;4266;48.816;9.154;2022-07-29T05:02:04;19.20;99.90
8459;DHT22;4266;48.816;9.154;2022-07-29T05:04:29;19.20;99.90
8459;DHT22;4266;48.816;9.154;2022-07-29T05:06:55;19.40;99.90
8459;DHT22;4266;48.816;9.154;2022-07-29T05:09:21;19.50;99.90
8459;DHT22;4266;48.816;9.154;2022-07-29T05:11:46;19.70;99.90
8459;DHT22;4266;48.816;9.154;2022-07-29T05:14:12;19.70;99.90
8459;DHT22;4266;48.816;9.154;2022-07-29T05:16:38;19.80;99.90
8459;DHT22;4266;48.816;9.154;2022-07-29T05:19:04;20.10;99.90
8459;DHT22;4266;48.816;9.154;2022-07-29T05:21:30;20.10;99.90
8459;DHT22;4266;48.816;9.154;2022-07-29T05:23:55;20.40;99.90
8459;DHT22;4266;48.816;9.154;2022-07-29T05:26:21;20.60;99.90
8459;DHT22;4266;48.816;9.154;2022-07-29T05:28:46;20.70;99.90
8459;DHT22;4266;48.816;9.154;2022-07-29T05:31:12;20.80;99.90
8459;DHT22;4266;48.816;9.154;2022-07-29T05:33:38;20.80;99.90
8459;DHT22;4266;48.816;9.154;2022-07-29T05:36:04;21.10;99.90
8459;DHT22;4266;48.816;9.154;2022-07-29T05:38:31;21.10;99.90
8459;DHT22;4266;48.816;9.154;2022-07-29T05:40:57;21.00;99.60
8459;DHT22;4266;48.816;9.154;2022-07-29T05:43:22;21.20;99.50
8459;DHT22;4266;48.816;9.154;2022-07-29T05:45:48;21.50;99.00
8459;DHT22;4266;48.816;9.154;2022-07-29T05:48:13;21.60;98.60
8459;DHT22;4266;48.816;9.154;2022-07-29T05:50:39;21.90;98.30
8459;DHT22;4266;48.816;9.154;2022-07-29T05:53:05;21.90;97.70
8459;DHT22;4266;48.816;9.154;2022-07-29T05:55:30;21.90;97.60
8459;DHT22;4266;48.816;9.154;2022-07-29T05:57:56;22.10;97.70
8459;DHT22;4266;48.816;9.154;2022-07-29T06:00:22;22.30;97.20
8459;DHT22;4266;48.816;9.154;2022-07-29T06:02:48;22.80;96.90
8459;DHT22;4266;48.816;9.154;2022-07-29T06:05:14;22.70;96.90
8459;DHT22;4266;48.816;9.154;2022-07-29T06:07:39;23.20;96.30
8459;DHT22;4266;48.816;9.154;2022-07-29T06:10:05;23.60;95.70
8459;DHT22;4266;48.816;9.154;2022-07-29T06:12:31;23.50;95.60
8459;DHT22;4266;48.816;9.154;2022-07-29T06:14:57;24.20;94.80
8459;DHT22;4266;48.816;9.154;2022-07-29T06:17:24;24.50;94.40
8459;DHT22;4266;48.816;9.154;2022-07-29T06:19:49;24.50;94.40
8459;DHT22;4266;48.816;9.154;2022-07-29T06:22:15;24.60;94.20
8459;DHT22;4266;48.816;9.154;2022-07-29T06:24:42;25.80;93.20
8459;DHT22;4266;48.816;9.154;2022-07-29T06:27:08;25.70;93.10
8459;DHT22;4266;48.816;9.154;2022-07-29T06:29:34;26.30;92.50
8459;DHT22;4266;48.816;9.154;2022-07-29T06:31:59;26.80;92.60
8459;DHT22;4266;48.816;9.154;2022-07-29T06:34:25;26.90;91.30
8459;DHT22;4266;48.816;9.154;2022-07-29T06:36:51;26.50;91.40
8459;DHT22;4266;48.816;9.154;2022-07-29T06:39:16;26.60;91.30
8459;DHT22;4266;48.816;9.154;2022-07-29T06:41:45;26.40;91.60
8459;DHT22;4266;48.816;9.154;2022-07-29T06:44:08;26.50;91.80
8459;DHT22;4266;48.816;9.154;2022-07-29T06:46:33;26.50;91.00
8459;DHT22;4266;48.816;9.154;2022-07-29T06:48:59;26.50;91.10
8459;DHT22;4266;48.816;9.154;2022-07-29T06:51:25;26.50;91.10
8459;DHT22;4266;48.816;9.154;2022-07-29T06:53:51;26.50;91.10
8459;DHT22;4266;48.816;9.154;2022-07-29T06:56:16;26.70;90.50
8459;DHT22;4266;48.816;9.154;2022-07-29T06:58:42;26.60;90.50
8459;DHT22;4266;48.816;9.154;2022-07-29T07:01:08;26.60;90.50
8459;DHT22;4266;48.816;9.154;2022-07-29T07:03:33;26.40;89.30
8459;DHT22;4266;48.816;9.154;2022-07-29T07:06:00;27.20;90.20
8459;DHT22;4266;48.816;9.154;2022-07-29T07:08:25;27.20;90.20
8459;DHT22;4266;48.816;9.154;2022-07-29T07:10:51;27.50;89.00
8459;DHT22;4266;48.816;9.154;2022-07-29T07:13:17;27.40;89.00
8459;DHT22;4266;48.816;9.154;2022-07-29T07:15:43;28.20;88.40
8459;DHT22;4266;48.816;9.154;2022-07-29T07:18:08;28.70;86.90
8459;DHT22;4266;48.816;9.154;2022-07-29T07:20:34;27.80;86.80
8459;DHT22;4266;48.816;9.154;2022-07-29T07:22:59;27.40;87.00
8459;DHT22;4266;48.816;9.154;2022-07-29T07:25:25;27.70;86.70
8459;DHT22;4266;48.816;9.154;2022-07-29T07:27:50;28.00;85.70
8459;DHT22;4266;48.816;9.154;2022-07-29T07:30:16;28.20;85.50
8459;DHT22;4266;48.816;9.154;2022-07-29T07:32:42;27.80;85.50
8459;DHT22;4266;48.816;9.154;2022-07-29T07:35:08;27.70;85.70
8459;DHT22;4266;48.816;9.154;2022-07-29T07:37:34;27.70;85.30
8459;DHT22;4266;48.816;9.154;2022-07-29T07:40:00;27.70;85.10
8459;DHT22;4266;48.816;9.154;2022-07-29T07:42:26;27.80;85.60
8459;DHT22;4266;48.816;9.154;2022-07-29T07:44:52;27.70;85.40
8459;DHT22;4266;48.816;9.154;2022-07-29T07:47:17;28.10;84.70
8459;DHT22;4266;48.816;9.154;2022-07-29T07:49:43;28.00;84.20
8459;DHT22;4266;48.816;9.154;2022-07-29T07:52:09;28.70;84.40
8459;DHT22;4266;48.816;9.154;2022-07-29T07:54:34;28.80;83.00
8459;DHT22;4266;48.816;9.154;2022-07-29T07:57:00;29.30;81.80
8459;DHT22;4266;48.816;9.154;2022-07-29T07:59:25;29.20;82.20
8459;DHT22;4266;48.816;9.154;2022-07-29T08:01:51;29.20;81.80
8459;DHT22;4266;48.816;9.154;2022-07-29T08:04:17;28.40;79.40
8459;DHT22;4266;48.816;9.154;2022-07-29T08:06:43;28.30;79.70
8459;DHT22;4266;48.816;9.154;2022-07-29T08:09:09;28.60;79.40
8459;DHT22;4266;48.816;9.154;2022-07-29T08:11:35;28.60;79.30
8459;DHT22;4266;48.816;9.154;2022-07-29T08:14:01;29.20;80.70
8459;DHT22;4266;48.816;9.154;2022-07-29T08:16:27;29.70;77.40
8459;DHT22;4266;48.816;9.154;2022-07-29T08:18:53;29.70;77.40
8459;DHT22;4266;48.816;9.154;2022-07-29T08:21:18;29.50;77.40
8459;DHT22;4266;48.816;9.154;2022-07-29T08:23:44;30.00;77.20
8459;DHT22;4266;48.816;9.154;2022-07-29T08:26:12;30.20;75.40
8459;DHT22;4266;48.816;9.154;2022-07-29T08:28:37;30.40;75.60
8459;DHT22;4266;48.816;9.154;2022-07-29T08:31:03;30.70;73.80
8459;DHT22;4266;48.816;9.154;2022-07-29T08:33:28;31.00;73.60
8459;DHT22;4266;48.816;9.154;2022-07-29T08:35:54;30.50;70.60
8459;DHT22;4266;48.816;9.154;2022-07-29T08:38:20;31.00;68.60
8459;DHT22;4266;48.816;9.154;2022-07-29T08:40:45;30.40;67.30
8459;DHT22;4266;48.816;9.154;2022-07-29T08:43:11;30.50;67.90
8459;DHT22;4266;48.816;9.154;2022-07-29T08:48:24;30.90;66.60
8459;DHT22;4266;48.816;9.154;2022-07-29T08:50:52;30.50;66.50
8459;DHT22;4266;48.816;9.154;2022-07-29T08:53:18;30.80;67.30
8459;DHT22;4266;48.816;9.154;2022-07-29T08:55:46;30.80;67.30
8459;DHT22;4266;48.816;9.154;2022-07-29T08:58:10;31.00;64.40
8459;DHT22;4266;48.816;9.154;2022-07-29T09:00:37;31.10;66.30
8459;DHT22;4266;48.816;9.154;2022-07-29T09:03:02;31.00;65.60
8459;DHT22;4266;48.816;9.154;2022-07-29T09:05:27;31.10;65.80
8459;DHT22;4266;48.816;9.154;2022-07-29T09:07:53;30.80;65.10
8459;DHT22;4266;48.816;9.154;2022-07-29T09:10:19;30.60;64.10
8459;DHT22;4266;48.816;9.154;2022-07-29T09:12:45;30.60;64.10
8459;DHT22;4266;48.816;9.154;2022-07-29T09:15:11;31.30;65.80
8459;DHT22;4266;48.816;9.154;2022-07-29T09:17:40;31.60;65.70
8459;DHT22;4266;48.816;9.154;2022-07-29T09:20:08;31.80;64.40
8459;DHT22;4266;48.816;9.154;2022-07-29T09:22:34;31.70;63.70
8459;DHT22;4266;48.816;9.154;2022-07-29T09:24:59;31.20;62.30
8459;DHT22;4266;48.816;9.154;2022-07-29T09:27:25;30.80;62.90
8459;DHT22;4266;48.816;9.154;2022-07-29T09:29:56;30.70;62.80
8459;DHT22;4266;48.816;9.154;2022-07-29T09:32:20;31.30;63.50
8459;DHT22;4266;48.816;9.154;2022-07-29T09:34:46;31.30;65.60
8459;DHT22;4266;48.816;9.154;2022-07-29T09:37:12;31.70;63.10
8459;DHT22;4266;48.816;9.154;2022-07-29T09:39:39;31.90;62.60
8459;DHT22;4266;48.816;9.154;2022-07-29T09:42:04;31.60;63.90
8459;DHT22;4266;48.816;9.154;2022-07-29T09:44:45;31.10;60.80
8459;DHT22;4266;48.816;9.154;2022-07-29T09:47:10;30.60;62.10
8459;DHT22;4266;48.816;9.154;2022-07-29T09:52:09;31.70;62.40
8459;DHT22;4266;48.816;9.154;2022-07-29T09:54:34;31.70;61.10
8459;DHT22;4266;48.816;9.154;2022-07-29T09:57:00;31.80;63.30
8459;DHT22;4266;48.816;9.154;2022-07-29T09:59:26;31.80;63.20
8459;DHT22;4266;48.816;9.154;2022-07-29T10:01:52;31.80;60.50
8459;DHT22;4266;48.816;9.154;2022-07-29T10:04:17;31.10;62.40
8459;DHT22;4266;48.816;9.154;2022-07-29T10:06:58;30.60;61.00
8459;DHT22;4266;48.816;9.154;2022-07-29T10:09:24;30.00;61.10
8459;DHT22;4266;48.816;9.154;2022-07-29T10:14:29;30.00;63.80
8459;DHT22;4266;48.816;9.154;2022-07-29T10:16:54;29.40;64.50
8459;DHT22;4266;48.816;9.154;2022-07-29T10:19:20;29.40;64.50
8459;DHT22;4266;48.816;9.154;2022-07-29T10:21:46;29.20;65.30
8459;DHT22;4266;48.816;9.154;2022-07-29T10:24:11;28.90;65.70
8459;DHT22;4266;48.816;9.154;2022-07-29T10:26:38;28.60;65.30
8459;DHT22;4266;48.816;9.154;2022-07-29T10:29:03;28.60;65.30
8459;DHT22;4266;48.816;9.154;2022-07-29T10:31:31;28.40;65.80
8459;DHT22;4266;48.816;9.154;2022-07-29T10:34:02;28.10;68.90
8459;DHT22;4266;48.816;9.154;2022-07-29T10:36:43;28.10;69.10
8459;DHT22;4266;48.816;9.154;2022-07-29T10:42:02;27.30;70.40
8459;DHT22;4266;48.816;9.154;2022-07-29T10:44:25;27.10;69.70
8459;DHT22;4266;48.816;9.154;2022-07-29T10:46:51;27.00;69.50
8459;DHT22;4266;48.816;9.154;2022-07-29T10:49:19;26.60;69.60
8459;DHT22;4266;48.816;9.154;2022-07-29T10:52:00;26.60;69.70
8459;DHT22;4266;48.816;9.154;2022-07-29T10:57:27;26.20;69.80
8459;DHT22;4266;48.816;9.154;2022-07-29T11:02:42;25.70;75.40
8459;DHT22;4266;48.816;9.154;2022-07-29T11:05:12;25.60;75.20
8459;DHT22;4266;48.816;9.154;2022-07-29T11:07:39;25.40;76.10
8459;DHT22;4266;48.816;9.154;2022-07-29T11:10:19;25.30;75.20
8459;DHT22;4266;48.816;9.154;2022-07-29T11:12:46;25.20;75.00
8459;DHT22;4266;48.816;9.154;2022-07-29T11:15:13;25.10;81.10
8459;DHT22;4266;48.816;9.154;2022-07-29T11:22:54;24.70;79.70
8459;DHT22;4266;48.816;9.154;2022-07-29T11:25:20;24.90;80.60
8459;DHT22;4266;48.816;9.154;2022-07-29T11:27:45;24.50;82.90
8459;DHT22;4266;48.816;9.154;2022-07-29T11:30:12;23.20;90.90
8459;DHT22;4266;48.816;9.154;2022-07-29T11:32:38;23.20;90.70
8459;DHT22;4266;48.816;9.154;2022-07-29T11:35:12;23.10;91.70
8459;DHT22;4266;48.816;9.154;2022-07-29T11:37:38;23.00;92.40
8459;DHT22;4266;48.816;9.154;2022-07-29T11:40:08;23.10;92.20
8459;DHT22;4266;48.816;9.154;2022-07-29T11:42:42;23.10;92.20
8459;DHT22;4266;48.816;9.154;2022-07-29T11:45:16;23.30;92.00
8459;DHT22;4266;48.816;9.154;2022-07-29T11:47:46;23.50;91.80
8459;DHT22;4266;48.816;9.154;2022-07-29T11:50:09;23.10;91.70
8459;DHT22;4266;48.816;9.154;2022-07-29T11:52:34;23.10;91.70
8459;DHT22;4266;48.816;9.154;2022-07-29T11:55:00;23.00;93.70
8459;DHT22;4266;48.816;9.154;2022-07-29T11:57:25;22.70;94.70
8459;DHT22;4266;48.816;9.154;2022-07-29T11:59:51;22.80;94.70
8459;DHT22;4266;48.816;9.154;2022-07-29T12:02:17;23.30;93.70
8459;DHT22;4266;48.816;9.154;2022-07-29T12:04:53;23.30;93.70
8459;DHT22;4266;48.816;9.154;2022-07-29T12:07:19;23.40;92.20
8459;DHT22;4266;48.816;9.154;2022-07-29T12:09:53;23.40;92.20
8459;DHT22;4266;48.816;9.154;2022-07-29T12:12:19;23.70;92.70
8459;DHT22;4266;48.816;9.154;2022-07-29T12:14:45;23.70;92.20
8459;DHT22;4266;48.816;9.154;2022-07-29T12:19:49;24.40;92.90
8459;DHT22;4266;48.816;9.154;2022-07-29T12:22:24;25.00;92.20
8459;DHT22;4266;48.816;9.154;2022-07-29T12:24:43;25.00;92.20
8459;DHT22;4266;48.816;9.154;2022-07-29T12:27:08;24.50;92.10
8459;DHT22;4266;48.816;9.154;2022-07-29T12:29:34;24.30;92.80
8459;DHT22;4266;48.816;9.154;2022-07-29T12:31:59;23.90;91.90
8459;DHT22;4266;48.816;9.154;2022-07-29T12:34:26;23.80;91.10
8459;DHT22;4266;48.816;9.154;2022-07-29T12:36:52;23.70;91.00
8459;DHT22;4266;48.816;9.154;2022-07-29T12:39:17;23.50;91.10
8459;DHT22;4266;48.816;9.154;2022-07-29T12:41:43;23.50;90.60
8459;DHT22;4266;48.816;9.154;2022-07-29T12:44:09;23.20;90.50
8459;DHT22;4266;48.816;9.154;2022-07-29T12:46:35;23.10;90.70
8459;DHT22;4266;48.816;9.154;2022-07-29T12:49:00;23.00;91.00
8459;DHT22;4266;48.816;9.154;2022-07-29T12:51:28;22.90;91.20
8459;DHT22;4266;48.816;9.154;2022-07-29T12:54:16;22.80;91.50
8459;DHT22;4266;48.816;9.154;2022-07-29T12:56:42;22.60;92.00
8459;DHT22;4266;48.816;9.154;2022-07-29T12:59:20;22.70;92.20
8459;DHT22;4266;48.816;9.154;2022-07-29T13:01:46;22.60;92.20
8459;DHT22;4266;48.816;9.154;2022-07-29T13:04:23;22.60;92.40
8459;DHT22;4266;48.816;9.154;2022-07-29T13:06:41;22.60;92.40
8459;DHT22;4266;48.816;9.154;2022-07-29T13:09:09;22.40;92.50
8459;DHT22;4266;48.816;9.154;2022-07-29T13:11:35;22.50;93.00
8459;DHT22;4266;48.816;9.154;2022-07-29T13:14:00;22.40;92.90
8459;DHT22;4266;48.816;9.154;2022-07-29T13:16:26;22.40;92.50
8459;DHT22;4266;48.816;9.154;2022-07-29T13:19:04;22.40;92.20
8459;DHT22;4266;48.816;9.154;2022-07-29T13:21:29;22.40;92.20
8459;DHT22;4266;48.816;9.154;2022-07-29T13:23:55;22.40;92.40
8459;DHT22;4266;48.816;9.154;2022-07-29T13:26:21;22.40;92.70
8459;DHT22;4266;48.816;9.154;2022-07-29T13:28:47;22.30;93.10
8459;DHT22;4266;48.816;9.154;2022-07-29T13:31:14;22.10;95.90
8459;DHT22;4266;48.816;9.154;2022-07-29T13:33:40;22.10;96.00
8459;DHT22;4266;48.816;9.154;2022-07-29T13:36:06;21.90;96.50
8459;DHT22;4266;48.816;9.154;2022-07-29T13:38:32;21.80;96.80
8459;DHT22;4266;48.816;9.154;2022-07-29T13:40:59;21.80;96.90
8459;DHT22;4266;48.816;9.154;2022-07-29T13:43:24;21.70;96.90
8459;DHT22;4266;48.816;9.154;2022-07-29T13:45:50;21.80;97.10
8459;DHT22;4266;48.816;9.154;2022-07-29T13:48:16;22.00;96.60
8459;DHT22;4266;48.816;9.154;2022-07-29T13:50:42;22.00;96.30
8459;DHT22;4266;48.816;9.154;2022-07-29T13:53:08;22.30;96.50
8459;DHT22;4266;48.816;9.154;2022-07-29T13:55:34;22.30;96.50
8459;DHT22;4266;48.816;9.154;2022-07-29T13:58:00;22.90;95.90
8459;DHT22;4266;48.816;9.154;2022-07-29T14:00:26;22.90;95.90
8459;DHT22;4266;48.816;9.154;2022-07-29T14:02:52;23.20;95.50
8459;DHT22;4266;48.816;9.154;2022-07-29T14:05:19;23.50;95.30
8459;DHT22;4266;48.816;9.154;2022-07-29T14:07:45;24.10;94.50
8459;DHT22;4266;48.816;9.154;2022-07-29T14:10:11;24.10;94.50
8459;DHT22;4266;48.816;9.154;2022-07-29T14:12:38;24.40;93.30
8459;DHT22;4266;48.816;9.154;2022-07-29T14:15:04;24.30;93.20
8459;DHT22;4266;48.816;9.154;2022-07-29T14:17:30;24.50;93.80
8459;DHT22;4266;48.816;9.154;2022-07-29T14:19:56;24.70;93.50
8459;DHT22;4266;48.816;9.154;2022-07-29T14:22:22;24.50;93.00
8459;DHT22;4266;48.816;9.154;2022-07-29T14:24:47;24.70;93.00
8459;DHT22;4266;48.816;9.154;2022-07-29T14:27:13;24.70;92.80
8459;DHT22;4266;48.816;9.154;2022-07-29T14:29:40;25.10;92.20
8459;DHT22;4266;48.816;9.154;2022-07-29T14:32:06;24.80;92.00
8459;DHT22;4266;48.816;9.154;2022-07-29T14:34:32;24.80;92.10
8459;DHT22;4266;48.816;9.154;2022-07-29T14:36:59;24.60;92.30
8459;DHT22;4266;48.816;9.154;2022-07-29T14:39:24;24.60;92.10
8459;DHT22;4266;48.816;9.154;2022-07-29T14:41:50;24.60;92.20
8459;DHT22;4266;48.816;9.154;2022-07-29T14:44:16;24.80;92.20
8459;DHT22;4266;48.816;9.154;2022-07-29T14:46:42;24.90;92.00
8459;DHT22;4266;48.816;9.154;2022-07-29T14:49:08;25.10;92.00
8459;DHT22;4266;48.816;9.154;2022-07-29T14:51:34;25.00;91.90
8459;DHT22;4266;48.816;9.154;2022-07-29T14:54:00;25.10;91.40
8459;DHT22;4266;48.816;9.154;2022-07-29T14:56:26;25.20;91.50
8459;DHT22;4266;48.816;9.154;2022-07-29T14:58:56;25.20;91.50
8459;DHT22;4266;48.816;9.154;2022-07-29T15:01:21;25.20;91.80
8459;DHT22;4266;48.816;9.154;2022-07-29T15:03:46;25.10;91.60
8459;DHT22;4266;48.816;9.154;2022-07-29T15:06:12;25.10;91.50
8459;DHT22;4266;48.816;9.154;2022-07-29T15:08:39;25.30;91.30
8459;DHT22;4266;48.816;9.154;2022-07-29T15:11:04;25.30;91.30
8459;DHT22;4266;48.816;9.154;2022-07-29T15:13:30;25.20;91.40
8459;DHT22;4266;48.816;9.154;2022-07-29T15:15:56;25.30;91.40
8459;DHT22;4266;48.816;9.154;2022-07-29T15:18:22;25.40;91.40
8459;DHT22;4266;48.816;9.154;2022-07-29T15:20:48;25.40;91.40
8459;DHT22;4266;48.816;9.154;2022-07-29T15:23:14;25.40;91.40
8459;DHT22;4266;48.816;9.154;2022-07-29T15:25:40;25.50;91.10
8459;DHT22;4266;48.816;9.154;2022-07-29T15:28:06;25.60;90.90
8459;DHT22;4266;48.816;9.154;2022-07-29T15:30:33;25.60;90.70
8459;DHT22;4266;48.816;9.154;2022-07-29T15:33:00;25.90;89.90
8459;DHT22;4266;48.816;9.154;2022-07-29T15:35:25;25.90;89.90
8459;DHT22;4266;48.816;9.154;2022-07-29T15:37:51;26.00;86.90
8459;DHT22;4266;48.816;9.154;2022-07-29T15:40:16;26.20;85.10
8459;DHT22;4266;48.816;9.154;2022-07-29T15:42:42;26.30;84.40
8459;DHT22;4266;48.816;9.154;2022-07-29T15:45:09;26.50;82.90
8459;DHT22;4266;48.816;9.154;2022-07-29T15:47:35;26.40;84.40
8459;DHT22;4266;48.816;9.154;2022-07-29T15:50:01;26.40;84.40
8459;DHT22;4266;48.816;9.154;2022-07-29T15:52:27;26.40;84.20
8459;DHT22;4266;48.816;9.154;2022-07-29T15:54:54;26.50;82.70
8459;DHT22;4266;48.816;9.154;2022-07-29T15:57:19;26.50;80.90
8459;DHT22;4266;48.816;9.154;2022-07-29T15:59:45;26.50;77.50
8459;DHT22;4266;48.816;9.154;2022-07-29T16:02:11;26.50;76.20
8459;DHT22;4266;48.816;9.154;2022-07-29T16:04:37;26.50;76.20
8459;DHT22;4266;48.816;9.154;2022-07-29T16:07:04;26.40;86.00
8459;DHT22;4266;48.816;9.154;2022-07-29T16:09:29;26.40;86.10
8459;DHT22;4266;48.816;9.154;2022-07-29T16:11:55;26.10;90.30
8459;DHT22;4266;48.816;9.154;2022-07-29T16:14:21;26.00;91.00
8459;DHT22;4266;48.816;9.154;2022-07-29T16:16:47;26.00;91.30
8459;DHT22;4266;48.816;9.154;2022-07-29T16:19:13;26.00;91.30
8459;DHT22;4266;48.816;9.154;2022-07-29T16:21:39;25.90;91.60
8459;DHT22;4266;48.816;9.154;2022-07-29T16:24:06;26.10;91.60